Time;durP1;ratioP1;P1;durP2;ratioP2;P2;SDS_P1;SDS_P2;PMS_P1;PMS_P2;Temp;Humidity;BMP_temperature;BMP_pressure;BME280_temperature;BME280_humidity;BME280_pressure;Samples;Min_cycle;Max_cycle;Signal;HPM_P1;HPM_P2
2022/11/05 00:09:40;;;;;;;1.30;1.17;;;;;;;16.05;48.83;101285.81;4983665;28;20098;-65
2022/11/05 00:17:36;;;;;;;4.22;1.92;;;;;;;16.16;48.14;101282.06;4953410;29;20042;-65
2022/11/05 00:20:01;;;;;;;2.65;1.70;;;;;;;16.18;48.30;101280.06;4954240;28;20501;-65
2022/11/05 00:25:18;;;;;;;2.40;1.50;;;;;;;16.19;49.10;101284.47;4954337;28;20105;-64
2022/11/05 00:27:44;;;;;;;8.50;1.73;;;;;;;16.21;48.96;101293.25;4953489;29;20048;-64
2022/11/05 00:30:10;;;;;;;2.17;1.42;;;;;;;16.20;48.27;101305.06;4954109;28;20039;-65
2022/11/05 00:32:36;;;;;;;2.70;1.30;;;;;;;16.16;48.32;101303.69;4956675;29;20059;-64
2022/11/05 00:35:02;;;;;;;1.52;1.30;;;;;;;16.17;48.77;101305.38;4956491;29;20113;-64
2022/11/05 00:37:27;;;;;;;2.58;1.52;;;;;;;16.13;48.63;101315.66;4940467;29;20450;-64
2022/11/05 00:39:52;;;;;;;1.63;1.38;;;;;;;16.06;47.91;101308.31;4956867;29;20031;-64
2022/11/05 00:45:03;;;;;;;1.73;1.60;;;;;;;15.96;48.52;101310.22;4956738;29;20078;-64
2022/11/05 00:50:14;;;;;;;2.08;1.42;;;;;;;15.92;47.50;101316.91;4956495;29;20139;-64
2022/11/05 00:53:00;;;;;;;4.13;1.60;;;;;;;15.87;48.67;101324.63;4940486;29;20106;-64
2022/11/05 00:55:39;;;;;;;2.22;1.95;;;;;;;15.87;47.91;101324.63;4956087;28;20041;-63
2022/11/05 00:58:10;;;;;;;4.00;2.65;;;;;;;15.85;48.38;101337.47;4956161;28;20023;-63
2022/11/05 01:00:37;;;;;;;6.43;2.63;;;;;;;15.84;48.04;101335.75;4957830;28;20035;-64
2022/11/05 01:03:08;;;;;;;3.13;2.22;;;;;;;15.82;47.97;101335.91;4924589;29;20393;-63
2022/11/05 01:05:37;;;;;;;3.42;2.13;;;;;;;15.82;48.57;101340.47;4956009;29;20039;-64
2022/11/05 01:08:03;;;;;;;3.72;2.50;;;;;;;15.82;48.51;101343.16;4939928;29;20053;-64
2022/11/05 01:10:28;;;;;;;6.78;2.75;;;;;;;15.86;48.03;101349.94;4956106;29;20027;-64
2022/11/05 01:12:53;;;;;;;4.80;2.58;;;;;;;15.86;49.08;101344.53;4957464;29;20118;-64
2022/11/05 01:15:19;;;;;;;8.23;2.90;;;;;;;15.90;48.11;101346.81;4956133;29;20090;-64
2022/11/05 01:17:45;;;;;;;3.78;2.40;;;;;;;15.92;48.38;101354.75;4956028;29;20047;-64
2022/11/05 01:20:10;;;;;;;3.78;2.55;;;;;;;15.93;49.10;101351.06;4956902;28;20119;-64
2022/11/05 01:22:36;;;;;;;7.50;3.13;;;;;;;15.94;49.11;101352.78;4939736;29;20027;-64
2022/11/05 01:25:01;;;;;;;4.63;2.35;;;;;;;15.96;48.12;101356.16;4940240;29;20503;-64
2022/11/05 01:27:26;;;;;;;6.30;3.05;;;;;;;15.96;49.32;101366.97;4956857;28;20035;-63
2022/11/05 01:29:52;;;;;;;5.65;2.75;;;;;;;15.95;49.26;101373.38;4955722;29;20083;-63
2022/11/05 01:32:17;;;;;;;8.63;2.90;;;;;;;15.95;48.73;101376.06;4955935;29;20436;-64
2022/11/05 01:34:43;;;;;;;7.78;3.33;;;;;;;15.94;49.18;101374.38;4956824;28;20043;-64
2022/11/05 01:37:08;;;;;;;7.43;2.95;;;;;;;15.95;49.57;101385.03;4955556;28;20114;-64
2022/11/05 01:39:33;;;;;;;6.88;2.90;;;;;;;15.97;48.24;101390.31;4955953;29;20085;-64
2022/11/05 01:41:59;;;;;;;4.68;3.50;;;;;;;15.96;49.03;101391.28;4955654;28;20040;-63
2022/11/05 01:44:48;;;;;;;5.05;2.85;;;;;;;15.95;49.36;101392.28;4955209;29;20043;-64
2022/11/05 01:47:25;;;;;;;7.70;3.20;;;;;;;15.92;49.51;101387.16;4939455;29;20110;-64
2022/11/05 01:49:50;;;;;;;7.38;3.08;;;;;;;15.93;49.53;101394.28;4955449;29;20036;-63
2022/11/05 01:52:17;;;;;;;8.48;3.67;;;;;;;15.93;49.08;101391.59;4955262;28;20110;-63
2022/11/05 01:54:43;;;;;;;10.00;4.25;;;;;;;15.93;48.18;101397.00;4956869;28;20039;-63
2022/11/05 01:57:09;;;;;;;8.50;3.45;;;;;;;15.91;48.17;101390.91;4955148;29;20035;-63
2022/11/05 01:59:42;;;;;;;8.18;4.50;;;;;;;15.91;49.70;101391.75;4955153;29;20036;-64
2022/11/05 02:02:07;;;;;;;11.50;4.60;;;;;;;15.91;48.19;101397.16;4939205;29;20413;-63
2022/11/05 02:04:42;;;;;;;14.02;5.05;;;;;;;15.91;49.49;101396.31;4955048;29;20046;-63
2022/11/05 02:07:08;;;;;;;9.63;4.28;;;;;;;15.88;48.65;101389.34;4954962;28;20038;-63
2022/11/05 02:09:40;;;;;;;12.85;5.38;;;;;;;15.89;49.63;101396.44;4955315;29;20401;-63
2022/11/05 02:12:07;;;;;;;8.27;4.35;;;;;;;15.87;48.79;101394.88;4954808;29;20039;-63
2022/11/05 02:14:32;;;;;;;8.23;4.10;;;;;;;15.85;48.67;101396.91;4938771;29;20105;-63
2022/11/05 02:17:04;;;;;;;10.80;4.75;;;;;;;15.84;49.54;101395.19;4954943;29;20114;-63
2022/11/05 02:19:41;;;;;;;10.07;5.15;;;;;;;15.83;49.72;101396.19;4954879;29;20031;-63
2022/11/05 02:22:30;;;;;;;7.82;4.47;;;;;;;15.77;49.78;101388.69;4955759;28;20023;-63
2022/11/05 02:25:43;;;;;;;11.90;4.75;;;;;;;15.74;49.21;101401.47;4955148;29;20023;-63
2022/11/05 02:28:30;;;;;;;14.37;5.57;;;;;;;15.70;48.33;101391.97;4954387;29;20035;-63
2022/11/05 02:31:02;;;;;;;9.73;5.05;;;;;;;15.65;49.25;101383.47;4956352;29;20042;-63
2022/11/05 02:33:34;;;;;;;8.90;4.53;;;;;;;15.67;49.69;101394.13;4938477;29;20053;-63
2022/11/05 02:36:19;;;;;;;9.63;5.00;;;;;;;15.65;48.29;101390.72;4955578;28;20292;-63
2022/11/05 02:39:08;;;;;;;8.00;5.45;;;;;;;15.62;48.17;101386.47;4940924;29;20035;-63
2022/11/05 02:41:51;;;;;;;9.82;5.05;;;;;;;15.56;48.94;101381.66;4955755;28;20118;-63
2022/11/05 02:44:51;;;;;;;8.23;5.15;;;;;;;15.56;49.46;101384.34;4955303;28;20039;-63
2022/11/05 02:47:29;;;;;;;9.15;5.03;;;;;;;15.54;49.64;101380.97;4955505;28;20043;-63
2022/11/05 02:50:13;;;;;;;13.85;5.10;;;;;;;15.51;49.02;101366.91;4938141;29;20055;-63
2022/11/05 02:52:44;;;;;;;11.20;5.55;;;;;;;15.52;49.02;101377.53;4955357;28;20168;-64
2022/11/05 02:56:05;;;;;;;10.27;5.03;;;;;;;15.49;48.11;101375.16;4955316;28;20034;-63
2022/11/05 02:58:32;;;;;;;7.90;4.65;;;;;;;15.48;49.16;101377.97;4914525;29;20043;-63
2022/11/05 03:00:59;;;;;;;11.73;5.43;;;;;;;15.46;48.34;101380.84;4915506;29;20509;-63
2022/11/05 03:03:38;;;;;;;10.82;5.70;;;;;;;15.44;48.94;101374.69;4915187;29;20502;-63
2022/11/05 03:06:31;;;;;;;8.50;4.95;;;;;;;15.42;49.58;101376.69;4914991;29;20048;-63
2022/11/05 03:09:25;;;;;;;8.40;4.53;;;;;;;15.37;48.30;101381.69;4914938;29;20044;-63
2022/11/05 03:12:03;;;;;;;8.05;4.90;;;;;;;15.31;49.34;101387.66;4917334;28;20043;-63
2022/11/05 03:14:59;;;;;;;9.10;4.75;;;;;;;15.32;48.19;101383.97;4934043;29;20036;-63
2022/11/05 03:17:46;;;;;;;12.05;5.18;;;;;;;15.29;49.27;101389.66;4917917;29;20036;-63
2022/11/05 03:20:17;;;;;;;9.63;5.43;;;;;;;15.27;47.97;101383.53;4917756;29;20036;-63
2022/11/05 03:23:28;;;;;;;15.38;5.25;;;;;;;15.27;49.73;101385.41;4933760;29;20127;-63
2022/11/05 03:26:11;;;;;;;9.45;5.18;;;;;;;15.25;48.63;101390.94;4908817;29;20064;-63
2022/11/05 03:28:40;;;;;;;12.05;5.18;;;;;;;15.22;48.28;101388.53;4933722;29;20618;-63
2022/11/05 03:31:07;;;;;;;14.00;5.68;;;;;;;15.21;49.22;101397.66;4904529;28;20079;-63
2022/11/05 03:33:34;;;;;;;9.27;5.38;;;;;;;15.19;48.12;101394.22;4957322;28;20069;-63
2022/11/05 03:36:04;;;;;;;11.05;5.90;;;;;;;15.16;48.52;101399.91;4973085;28;20086;-63
2022/11/05 03:38:33;;;;;;;13.13;5.30;;;;;;;15.15;47.85;101403.63;4972942;28;20027;-63
2022/11/05 03:41:00;;;;;;;16.20;5.35;;;;;;;15.13;48.64;101405.63;4973058;28;20470;-64
2022/11/05 03:43:29;;;;;;;17.05;5.80;;;;;;;15.09;49.28;101410.44;4972866;28;20490;-63
2022/11/05 03:46:08;;;;;;;13.02;4.80;;;;;;;15.07;49.29;101414.28;4957394;28;20022;-63
2022/11/05 03:48:38;;;;;;;10.27;4.70;;;;;;;15.07;48.80;101406.19;4972966;28;20043;-63
2022/11/05 03:51:03;;;;;;;8.35;5.20;;;;;;;15.07;49.49;101412.41;4956809;28;20110;-63
2022/11/05 03:53:32;;;;;;;10.10;4.88;;;;;;;15.07;49.32;101409.72;4972961;28;20121;-63
2022/11/05 03:56:22;;;;;;;12.20;5.03;;;;;;;15.05;49.01;101410.84;4956889;28;20050;-63
2022/11/05 03:58:47;;;;;;;10.30;5.22;;;;;;;15.01;48.25;101402.22;4972588;28;20033;-63
2022/11/05 04:01:13;;;;;;;7.68;4.85;;;;;;;15.01;47.91;101404.91;4972777;28;20105;-63
2022/11/05 04:03:38;;;;;;;11.90;4.78;;;;;;;15.01;49.21;101409.44;4973240;28;20031;-63
2022/11/05 04:14:17;;;;;;;10.43;4.75;;;;;;;14.94;49.33;101413.69;4976772;28;20174;-63
2022/11/05 04:24:53;;;;;;;11.02;4.80;;;;;;;14.90;49.62;101423.09;4977326;28;20077;-63
2022/11/05 04:27:19;;;;;;;9.38;4.70;;;;;;;14.89;48.94;101424.06;4976328;28;20031;-63
2022/11/05 04:32:28;;;;;;;8.05;3.67;;;;;;;14.85;48.44;101428.06;4977501;28;20094;-63
2022/11/05 04:34:53;;;;;;;8.45;3.60;;;;;;;14.83;49.19;101427.34;4959981;28;20496;-62
2022/11/05 04:37:18;;;;;;;8.38;3.85;;;;;;;14.83;48.99;101436.28;4959624;28;20113;-63
2022/11/05 04:39:44;;;;;;;8.80;3.72;;;;;;;14.80;48.59;101424.91;4944770;28;20393;-62
2022/11/05 04:42:09;;;;;;;9.45;4.18;;;;;;;14.81;49.63;101437.41;4944020;28;20065;-63
2022/11/05 04:44:35;;;;;;;8.10;4.45;;;;;;;14.80;48.18;101430.31;4977144;28;20131;-63
2022/11/05 04:47:00;;;;;;;5.65;3.15;;;;;;;14.78;49.06;101435.88;4959896;28;20043;-63
2022/11/05 04:49:25;;;;;;;10.60;3.65;;;;;;;14.75;49.01;101433.44;4943675;28;20031;-63
2022/11/05 04:51:51;;;;;;;9.00;3.83;;;;;;;14.75;48.45;101432.59;4976346;28;20034;-63
2022/11/05 04:54:16;;;;;;;6.30;3.55;;;;;;;14.74;49.02;101436.31;4959864;28;20138;-63
2022/11/05 04:56:42;;;;;;;9.77;5.28;;;;;;;14.71;47.81;101440.13;4976963;28;20038;-63
2022/11/05 04:59:07;;;;;;;9.95;3.67;;;;;;;14.70;47.85;101440.25;4975370;28;20404;-62
2022/11/05 05:01:32;;;;;;;7.72;3.28;;;;;;;14.67;49.42;101435.13;4975899;28;20085;-63
2022/11/05 05:03:58;;;;;;;9.77;3.40;;;;;;;14.66;48.00;101438.81;4977201;28;20030;-63
2022/11/05 05:06:23;;;;;;;9.32;3.17;;;;;;;14.63;48.59;101439.13;4975748;28;20575;-63
2022/11/05 05:08:50;;;;;;;7.00;2.60;;;;;;;14.61;48.02;101439.25;4976837;28;20050;-63
2022/11/05 05:11:17;;;;;;;5.53;2.90;;;;;;;14.61;48.80;101446.47;4975638;28;20122;-63
2022/11/05 05:13:43;;;;;;;5.75;3.15;;;;;;;14.60;48.61;101450.19;4975612;28;20561;-63
2022/11/05 05:16:14;;;;;;;4.22;2.75;;;;;;;14.55;48.59;101447.88;4959051;28;20131;-63
2022/11/05 05:18:40;;;;;;;4.38;3.20;;;;;;;14.56;48.14;101450.47;4959589;28;20113;-63
2022/11/05 05:23:49;;;;;;;5.18;3.22;;;;;;;14.51;48.96;101447.34;4975611;28;20576;-63
2022/11/05 05:26:15;;;;;;;5.07;2.83;;;;;;;14.52;49.31;101454.41;4959125;28;20109;-63
2022/11/05 05:28:40;;;;;;;9.15;2.80;;;;;;;14.46;48.91;101444.19;4976326;28;20039;-62
2022/11/05 05:31:06;;;;;;;5.82;3.22;;;;;;;14.51;49.44;101460.81;4976368;28;20031;-62
2022/11/05 05:33:31;;;;;;;7.93;3.92;;;;;;;14.49;49.31;101460.09;4975272;28;20027;-62
2022/11/05 05:35:57;;;;;;;12.35;2.90;;;;;;;14.44;48.52;101456.97;4975135;28;20556;-62
2022/11/05 05:38:22;;;;;;;4.75;3.00;;;;;;;14.44;49.28;101456.09;4958748;28;20042;-63
2022/11/05 05:40:49;;;;;;;4.65;3.17;;;;;;;14.39;48.39;101448.44;4975229;28;20033;-63
2022/11/05 05:43:14;;;;;;;7.38;2.72;;;;;;;14.38;48.69;101456.66;4942635;28;20141;-63
2022/11/05 05:45:39;;;;;;;9.25;2.90;;;;;;;14.38;49.18;101457.50;4975273;28;20505;-63
2022/11/05 05:48:05;;;;;;;4.85;3.25;;;;;;;14.38;47.87;101460.19;4976191;28;20030;-62
2022/11/05 05:50:30;;;;;;;8.52;2.83;;;;;;;14.34;48.58;101458.78;4974726;28;20416;-63
2022/11/05 05:52:56;;;;;;;4.45;2.90;;;;;;;14.34;48.81;101463.31;4958913;28;20058;-63
2022/11/05 05:55:21;;;;;;;10.48;3.03;;;;;;;14.32;48.97;101463.44;4974799;28;20034;-63
2022/11/05 05:57:46;;;;;;;8.27;3.60;;;;;;;14.37;49.05;101463.91;4958979;28;20034;-63
2022/11/05 06:00:12;;;;;;;6.07;2.90;;;;;;;14.37;49.59;101472.00;4958381;28;20106;-63
2022/11/05 06:02:38;;;;;;;8.23;3.35;;;;;;;14.37;49.31;101474.69;4958699;28;20046;-63
2022/11/05 06:05:04;;;;;;;7.05;3.35;;;;;;;14.37;48.34;101471.13;4958379;28;20027;-63
2022/11/05 06:07:29;;;;;;;6.78;2.80;;;;;;;14.36;48.53;101474.81;4974522;28;20038;-63
2022/11/05 06:09:55;;;;;;;4.00;2.67;;;;;;;14.39;48.24;101470.00;4958424;28;20491;-63
2022/11/05 06:12:20;;;;;;;4.28;2.75;;;;;;;14.38;49.52;101479.06;4974638;28;20039;-62
2022/11/05 06:14:45;;;;;;;6.55;2.90;;;;;;;14.40;49.10;101487.03;4974291;28;20031;-63
2022/11/05 06:17:11;;;;;;;9.40;3.55;;;;;;;14.40;48.43;101495.97;4975562;28;20034;-63
2022/11/05 06:19:36;;;;;;;7.53;2.70;;;;;;;14.43;48.69;101490.28;4974146;28;20058;-63
2022/11/05 06:22:01;;;;;;;10.63;2.70;;;;;;;14.45;49.21;101491.03;4974722;28;20034;-63
2022/11/05 06:24:27;;;;;;;3.90;2.30;;;;;;;14.43;48.76;101492.16;4974209;28;20053;-63
2022/11/05 06:26:52;;;;;;;8.32;3.03;;;;;;;14.47;49.20;101501.66;4974122;28;20515;-62
2022/11/05 06:29:17;;;;;;;6.10;2.72;;;;;;;14.44;48.30;101497.41;4973623;28;20046;-62
2022/11/05 06:31:43;;;;;;;10.57;3.65;;;;;;;14.47;48.84;101507.03;4958041;28;20039;-63
2022/11/05 06:34:08;;;;;;;5.18;2.90;;;;;;;14.45;48.97;101496.41;4973842;28;20031;-63
2022/11/05 06:36:34;;;;;;;8.13;2.83;;;;;;;14.45;48.64;101515.28;4974273;28;20030;-62
2022/11/05 06:38:59;;;;;;;8.55;3.22;;;;;;;14.45;49.65;101526.06;4957703;28;20051;-62
2022/11/05 06:41:24;;;;;;;6.22;2.97;;;;;;;14.46;48.97;101519.66;4957709;28;20030;-62
2022/11/05 06:43:50;;;;;;;6.03;3.38;;;;;;;14.45;49.19;101523.38;4973365;28;20515;-62
2022/11/05 06:46:15;;;;;;;6.13;3.40;;;;;;;14.43;49.13;101530.72;4957515;28;20106;-62
2022/11/05 06:48:40;;;;;;;5.60;2.80;;;;;;;14.43;49.56;101530.72;4957760;28;20066;-63
2022/11/05 06:51:07;;;;;;;4.65;3.10;;;;;;;14.41;48.79;101538.09;4973477;28;20101;-63
2022/11/05 06:53:33;;;;;;;11.63;3.15;;;;;;;14.41;48.27;101531.84;4941662;28;20046;-63
2022/11/05 06:56:05;;;;;;;7.22;2.78;;;;;;;14.41;49.21;101532.72;4957304;28;20508;-63
2022/11/05 06:58:32;;;;;;;4.75;3.08;;;;;;;14.41;48.81;101531.84;4973617;28;20030;-63
2022/11/05 07:01:02;;;;;;;11.90;3.53;;;;;;;14.40;48.08;101531.03;4973896;28;20508;-63
2022/11/05 07:03:27;;;;;;;7.85;3.90;;;;;;;14.40;49.02;101533.72;4973740;28;20397;-63
2022/11/05 07:05:53;;;;;;;10.60;3.78;;;;;;;14.42;48.53;101534.44;4974717;28;20039;-63
2022/11/05 07:08:18;;;;;;;9.38;3.42;;;;;;;14.48;48.70;101528.50;4973378;28;20034;-63
2022/11/05 07:10:44;;;;;;;7.95;4.40;;;;;;;14.51;47.92;101532.75;4973421;28;20037;-63
2022/11/05 07:13:09;;;;;;;4.90;3.47;;;;;;;14.55;47.70;101531.47;4973241;28;20063;-63
2022/11/05 07:15:36;;;;;;;9.50;3.83;;;;;;;14.63;47.63;101536.19;4959627;28;20031;-63
2022/11/05 07:18:01;;;;;;;10.52;3.85;;;;;;;14.67;48.32;101541.16;4973051;28;20527;-63
2022/11/05 07:20:27;;;;;;;10.23;4.00;;;;;;;14.69;48.89;101525.69;4974814;28;20122;-63
2022/11/05 07:23:06;;;;;;;8.50;3.92;;;;;;;14.78;48.02;101542.88;4975111;28;20409;-62
2022/11/05 07:25:33;;;;;;;5.97;3.88;;;;;;;14.84;47.80;101545.03;4973437;28;20489;-62
2022/11/05 07:27:59;;;;;;;7.22;3.65;;;;;;;14.90;48.87;101533.69;4973536;28;20026;-62
2022/11/05 07:30:24;;;;;;;8.07;4.20;;;;;;;15.00;49.16;101540.81;4972989;28;20034;-64
2022/11/05 07:32:50;;;;;;;9.68;3.88;;;;;;;15.07;47.26;101543.81;4974874;28;20117;-61
2022/11/05 07:35:15;;;;;;;6.35;4.10;;;;;;;15.17;48.93;101541.94;4973108;28;20039;-63
2022/11/05 07:37:45;;;;;;;10.25;4.70;;;;;;;15.27;48.65;101547.38;4972987;28;20031;-63
2022/11/05 07:40:12;;;;;;;10.15;3.90;;;;;;;15.34;47.57;101543.94;4990323;28;20027;-63
2022/11/05 07:42:43;;;;;;;10.10;3.97;;;;;;;15.43;48.65;101545.78;4978279;28;20381;-64
2022/11/05 07:45:09;;;;;;;9.00;4.00;;;;;;;15.53;47.22;101549.38;4976887;28;20038;-63
2022/11/05 07:47:38;;;;;;;14.23;4.30;;;;;;;15.63;48.32;101552.06;4978019;28;20579;-63
2022/11/05 07:50:04;;;;;;;9.57;4.00;;;;;;;15.71;48.03;101552.19;4976653;28;20504;-64
2022/11/05 07:52:32;;;;;;;6.60;4.32;;;;;;;15.80;47.74;101550.47;4992736;28;20162;-64
2022/11/05 07:54:58;;;;;;;13.20;4.88;;;;;;;15.86;47.04;101553.44;4976988;28;20039;-64
2022/11/05 07:57:23;;;;;;;7.85;4.40;;;;;;;15.93;47.95;101559.13;4976751;28;20082;-64
2022/11/05 07:59:48;;;;;;;10.43;5.13;;;;;;;15.98;47.37;101554.13;4992839;28;20519;-63
2022/11/05 08:02:14;;;;;;;10.98;4.38;;;;;;;16.00;47.42;101558.38;4976579;28;20047;-65
2022/11/05 08:04:41;;;;;;;11.75;5.10;;;;;;;16.02;47.57;101555.53;4976745;28;20117;-64
2022/11/05 08:07:07;;;;;;;11.90;5.07;;;;;;;16.04;47.46;101556.25;4992534;28;20022;-64
2022/11/05 08:09:32;;;;;;;8.57;4.72;;;;;;;16.13;47.19;101560.78;4976729;28;20503;-64
2022/11/05 08:11:58;;;;;;;12.98;4.85;;;;;;;16.23;47.91;101567.84;4977684;28;20113;-64
2022/11/05 08:14:23;;;;;;;14.93;5.00;;;;;;;16.39;47.06;101569.91;4976215;28;20043;-64
2022/11/05 08:16:48;;;;;;;8.82;3.95;;;;;;;16.55;46.92;101563.91;4992225;28;20484;-65
2022/11/05 08:19:14;;;;;;;13.68;5.70;;;;;;;16.65;47.35;101560.16;4976108;28;20081;-63
2022/11/05 08:21:39;;;;;;;10.52;4.82;;;;;;;16.79;46.89;101553.38;4976613;28;20090;-64
2022/11/05 08:24:05;;;;;;;11.27;5.40;;;;;;;16.94;47.36;101556.44;4992389;28;20039;-64
2022/11/05 08:26:30;;;;;;;14.68;4.82;;;;;;;17.10;46.85;101562.00;4992397;28;20027;-64
2022/11/05 08:28:56;;;;;;;10.05;5.13;;;;;;;17.25;47.22;101563.19;4975924;28;20122;-64
2022/11/05 08:31:21;;;;;;;12.38;5.15;;;;;;;17.39;46.94;101559.94;4992242;28;20049;-63
2022/11/05 08:33:46;;;;;;;7.88;5.55;;;;;;;17.56;47.05;101567.22;4976160;28;20038;-64
2022/11/05 08:36:12;;;;;;;11.73;4.95;;;;;;;17.70;47.26;101560.41;4992213;28;20031;-63
2022/11/05 08:38:37;;;;;;;7.75;4.85;;;;;;;17.82;46.22;101570.81;4975717;28;20035;-64
2022/11/05 08:41:03;;;;;;;13.55;5.50;;;;;;;17.95;45.91;101567.72;4992060;28;20071;-64
2022/11/05 08:43:29;;;;;;;8.27;4.47;;;;;;;18.09;45.60;101569.00;4991747;28;20043;-64
2022/11/05 08:45:54;;;;;;;8.70;5.13;;;;;;;18.23;45.58;101571.13;4959993;28;20480;-64
2022/11/05 08:48:19;;;;;;;13.07;5.78;;;;;;;18.39;45.97;101563.06;4975542;28;20039;-63
2022/11/05 08:50:46;;;;;;;9.75;4.63;;;;;;;18.58;45.40;101562.84;4975237;28;20131;-64
2022/11/05 08:53:12;;;;;;;12.73;5.13;;;;;;;18.72;45.15;101556.78;4991792;28;20035;-64
2022/11/05 08:55:38;;;;;;;9.25;4.65;;;;;;;18.90;45.32;101568.38;4991850;28;20027;-64
2022/11/05 08:58:06;;;;;;;10.75;4.95;;;;;;;19.11;44.82;101566.06;4975659;28;20428;-64
2022/11/05 09:00:34;;;;;;;8.38;4.28;;;;;;;19.34;44.63;101560.00;4959690;28;20027;-64
2022/11/05 09:03:01;;;;;;;10.85;4.32;;;;;;;19.56;44.57;101562.09;4991780;28;20026;-65
2022/11/05 09:05:28;;;;;;;9.43;4.38;;;;;;;19.83;44.78;101560.88;4976638;28;20093;-64
2022/11/05 09:07:53;;;;;;;9.98;5.72;;;;;;;20.10;44.13;101566.78;4959087;28;20133;-64
2022/11/05 09:10:18;;;;;;;10.60;4.70;;;;;;;20.36;43.44;101560.28;4976423;28;20170;-64
2022/11/05 09:12:44;;;;;;;10.10;4.65;;;;;;;20.71;43.24;101562.56;4991962;28;20030;-64
2022/11/05 09:15:09;;;;;;;8.10;4.70;;;;;;;21.19;43.00;101559.59;4976394;28;20039;-64
2022/11/05 09:17:35;;;;;;;11.02;4.30;;;;;;;21.61;42.22;101553.66;4975117;28;20035;-64
2022/11/05 09:20:02;;;;;;;8.20;4.38;;;;;;;21.97;41.73;101559.34;4975257;28;20512;-65
2022/11/05 09:22:27;;;;;;;7.72;3.83;;;;;;;22.33;41.31;101560.31;4991419;28;20521;-65
2022/11/05 09:24:53;;;;;;;7.43;3.83;;;;;;;22.68;40.87;101571.53;4975334;28;20102;-65
2022/11/05 09:27:18;;;;;;;6.68;4.28;;;;;;;22.96;40.17;101572.53;4975112;28;20493;-65
2022/11/05 09:29:44;;;;;;;9.82;3.70;;;;;;;23.28;40.77;101566.63;4974946;28;20174;-64
2022/11/05 09:32:09;;;;;;;9.75;4.07;;;;;;;23.54;39.79;101572.38;4991241;28;20038;-64
2022/11/05 09:34:35;;;;;;;7.53;4.10;;;;;;;23.86;40.22;101564.66;4974887;28;20105;-65
2022/11/05 09:37:00;;;;;;;8.43;4.10;;;;;;;24.03;39.32;101577.00;4976477;28;20027;-65
2022/11/05 09:39:26;;;;;;;8.38;3.38;;;;;;;23.98;39.27;101563.91;4974708;28;20023;-65
2022/11/05 09:41:53;;;;;;;8.77;3.42;;;;;;;23.78;39.83;101568.41;4991055;28;20093;-65
2022/11/05 09:44:25;;;;;;;8.68;4.60;;;;;;;23.51;40.14;101572.75;4975986;28;20050;-65
2022/11/05 09:46:55;;;;;;;6.45;3.50;;;;;;;23.81;40.03;101572.63;4976048;28;20023;-65
2022/11/05 09:49:24;;;;;;;8.00;3.47;;;;;;;24.08;39.64;101580.00;4990787;28;20400;-65
2022/11/05 09:51:51;;;;;;;8.57;3.50;;;;;;;24.48;38.46;101573.78;4976057;28;20038;-65
2022/11/05 09:54:19;;;;;;;6.57;3.30;;;;;;;24.73;38.52;101574.97;4974524;28;20038;-65
2022/11/05 09:56:45;;;;;;;9.73;3.88;;;;;;;24.87;38.13;101579.47;4990812;28;20039;-65
2022/11/05 09:59:18;;;;;;;6.57;3.35;;;;;;;25.15;37.35;101573.06;4990732;28;20038;-65
2022/11/05 10:01:44;;;;;;;6.63;4.07;;;;;;;25.32;37.13;101574.38;4987547;28;20527;-65
2022/11/05 10:04:16;;;;;;;6.43;3.83;;;;;;;25.48;37.45;101578.66;4973457;28;20488;-65
2022/11/05 10:06:47;;;;;;;10.40;3.50;;;;;;;25.64;37.18;101570.88;4974643;28;20034;-65
2022/11/05 10:09:24;;;;;;;7.60;3.30;;;;;;;25.87;36.82;101579.53;4974162;28;20042;-65
2022/11/05 10:12:03;;;;;;;8.07;3.08;;;;;;;26.10;36.31;101578.28;4974251;28;20504;-65
2022/11/05 10:14:39;;;;;;;7.68;3.42;;;;;;;26.23;35.98;101573.63;4990541;28;20039;-65
2022/11/05 10:17:23;;;;;;;5.65;3.05;;;;;;;26.41;36.62;101579.28;4974096;28;20034;-67
2022/11/05 10:20:06;;;;;;;7.93;3.58;;;;;;;26.70;35.74;101580.72;4973962;28;20037;-65
2022/11/05 10:22:32;;;;;;;7.13;3.20;;;;;;;26.94;36.44;101588.25;4975145;28;20031;-67
2022/11/05 10:24:58;;;;;;;6.50;3.28;;;;;;;27.19;36.17;101575.44;4974147;28;20026;-67
2022/11/05 10:27:29;;;;;;;5.90;2.95;;;;;;;26.30;36.67;101584.63;4990097;28;20031;-67
2022/11/05 10:29:55;;;;;;;7.05;3.28;;;;;;;25.61;37.79;101590.50;4973717;28;20046;-67
2022/11/05 10:32:27;;;;;;;5.53;3.30;;;;;;;25.09;37.87;101590.34;4973717;28;20404;-65
2022/11/05 10:34:53;;;;;;;;;;;;;;;24.61;38.67;101598.50;4990333;28;20046;-67
2022/11/05 10:37:19;;;;;;;5.00;3.22;;;;;;;24.21;38.70;101600.13;4974998;28;19910;-66
2022/11/05 10:39:44;;;;;;;7.00;3.10;;;;;;;23.86;39.03;101597.50;4973998;28;20114;-66
2022/11/05 10:42:25;;;;;;;9.05;3.15;;;;;;;23.53;39.31;101605.41;4989762;28;20129;-66
2022/11/05 10:45:22;;;;;;;9.98;3.15;;;;;;;23.22;38.39;101605.66;4973403;28;20421;-65
2022/11/05 10:48:04;;;;;;;8.25;3.10;;;;;;;22.84;39.45;101613.16;4974813;28;20043;-66
2022/11/05 10:50:30;;;;;;;;;;;;;;;22.57;39.79;101613.81;4975248;28;20393;-64
2022/11/05 10:53:15;;;;;;;9.55;2.95;;;;;;;22.37;39.34;101612.66;4957313;28;19976;-64
2022/11/05 10:55:43;;;;;;;7.60;3.35;;;;;;;22.14;39.23;101609.97;4973385;28;20031;-64
2022/11/05 10:58:14;;;;;;;7.60;2.90;;;;;;;21.99;39.37;101617.31;4989465;28;20030;-63
2022/11/05 11:00:42;;;;;;;12.38;3.42;;;;;;;21.85;39.68;101610.75;4974889;28;20019;-65
2022/11/05 11:03:44;;;;;;;4.40;2.75;;;;;;;21.70;39.72;101609.84;4973374;28;20038;-64
2022/11/05 11:06:33;;;;;;;6.80;2.90;;;;;;;21.54;40.47;101611.84;4970994;28;20039;-65
2022/11/05 11:09:05;;;;;;;8.23;3.05;;;;;;;21.43;40.30;101616.69;4973325;28;20038;-64
2022/11/05 11:11:35;;;;;;;6.03;3.53;;;;;;;21.34;40.47;101615.03;4973312;28;20031;-64
2022/11/05 11:14:17;;;;;;;7.63;2.90;;;;;;;21.33;40.67;101616.06;4957235;28;20261;-64
2022/11/05 11:16:44;;;;;;;10.38;3.15;;;;;;;21.30;41.07;101610.13;4956963;28;20027;-64
2022/11/05 11:19:29;;;;;;;5.00;2.90;;;;;;;21.28;40.85;101596.66;4973170;28;20030;-64
2022/11/05 11:22:04;;;;;;;5.90;2.42;;;;;;;21.21;40.99;101598.44;4973510;28;20031;-64
2022/11/05 11:24:36;;;;;;;7.00;2.47;;;;;;;21.11;40.75;101595.06;4974802;28;20047;-64
2022/11/05 11:27:05;;;;;;;4.88;2.85;;;;;;;21.06;40.93;101589.28;4957084;28;20038;-65
2022/11/05 11:29:34;;;;;;;6.82;2.45;;;;;;;21.04;41.36;101587.75;4973713;28;20493;-64
2022/11/05 11:32:00;;;;;;;7.80;3.92;;;;;;;21.00;41.23;101586.41;4973609;28;20043;-63
2022/11/05 11:34:28;;;;;;;8.10;2.72;;;;;;;21.01;40.79;101580.78;4973474;28;20081;-64
2022/11/05 11:37:15;;;;;;;13.65;2.95;;;;;;;21.00;41.04;101584.53;4957264;28;20035;-64
2022/11/05 11:39:45;;;;;;;10.38;2.65;;;;;;;20.97;41.44;101592.22;4974251;28;20118;-63
2022/11/05 11:42:26;;;;;;;4.57;2.20;;;;;;;21.01;40.43;101588.97;4972916;28;20039;-65
2022/11/05 11:44:52;;;;;;;11.13;2.95;;;;;;;21.09;40.50;101580.78;4956227;28;20059;-63
2022/11/05 11:47:20;;;;;;;6.05;2.97;;;;;;;21.21;40.20;101582.06;4974094;28;20101;-64
2022/11/05 11:49:58;;;;;;;9.60;3.08;;;;;;;21.54;39.88;101579.13;4972733;28;20038;-65
2022/11/05 11:52:28;;;;;;;5.85;2.80;;;;;;;21.92;40.17;101578.13;4972755;28;20057;-65
2022/11/05 11:55:11;;;;;;;10.38;2.58;;;;;;;22.19;38.95;101577.53;4974147;28;20031;-66
2022/11/05 11:57:49;;;;;;;10.77;2.30;;;;;;;22.19;39.83;101580.28;4972414;28;20035;-65
2022/11/05 12:00:16;;;;;;;9.18;2.25;;;;;;;22.24;39.31;101577.81;4956408;28;20058;-65
2022/11/05 12:02:50;;;;;;;4.35;2.40;;;;;;;22.32;38.82;101574.16;4956382;28;20456;-64
2022/11/05 12:05:17;;;;;;;5.47;2.42;;;;;;;22.44;39.30;101572.66;4972469;28;20424;-65
2022/11/05 12:07:51;;;;;;;5.30;2.25;;;;;;;23.14;37.66;101564.78;4972537;28;20109;-65
2022/11/05 12:10:57;;;;;;;5.47;2.17;;;;;;;23.59;38.02;101558.13;4972246;28;20027;-65
2022/11/05 12:13:28;;;;;;;5.07;1.95;;;;;;;23.57;38.29;101566.50;4972173;28;20486;-65
2022/11/05 12:15:55;;;;;;;3.90;2.10;;;;;;;23.54;37.78;101569.63;4974090;28;20664;-66
2022/11/05 12:18:29;;;;;;;6.03;1.95;;;;;;;23.73;37.28;101562.63;4956293;28;20035;-65
2022/11/05 12:21:04;;;;;;;5.05;2.10;;;;;;;24.00;37.90;101561.84;4972286;28;20500;-66